SWR1YB LFPG-LSGG
Flight info
| Callsign | SWR1YB |
|---|---|
| Flight time | 0h 39m |
| Altitude | 27000 |
| Route | BAXIR A6 DJL |
| Aircraft | A321/M-SDE3FGHIRWY/LB1 |
Departure
| Time | 2026-05-05 17:32 |
|---|---|
| Airport | Charles de Gaulle International Airport (LFPG) |
Arrival
| Time | 2026-05-05 18:11 |
|---|---|
| Airport | Geneva International Airport (LSGG) |
| Time | Latitude | Longitude | Altitude | Speed | Heading |
|---|---|---|---|---|---|
| 2026-05-05 17:11 | 49.01622 | 2.53844 | 357 ft | 0 kts | 169° |
| 2026-05-05 17:12 | 49.01623 | 2.53844 | 357 ft | 0 kts | 169° |
| 2026-05-05 17:22 | 49.01643 | 2.53839 | 364 ft | 4 kts | 169° |
| 2026-05-05 17:23 | 49.01669 | 2.53831 | 358 ft | 4 kts | 171° |
| 2026-05-05 17:23 | 49.01696 | 2.53825 | 357 ft | 4 kts | 174° |
| 2026-05-05 17:23 | 49.01723 | 2.53823 | 360 ft | 4 kts | 188° |
| 2026-05-05 17:23 | 49.01744 | 2.53835 | 358 ft | 2 kts | 230° |
| 2026-05-05 17:24 | 49.01745 | 2.53836 | 359 ft | 2 kts | 231° |
| 2026-05-05 17:26 | 49.01740 | 2.53826 | 360 ft | 5 kts | 231° |
| 2026-05-05 17:26 | 49.01722 | 2.53793 | 361 ft | 2 kts | 228° |
| 2026-05-05 17:26 | 49.01711 | 2.53778 | 362 ft | 6 kts | 224° |
| 2026-05-05 17:26 | 49.01648 | 2.53698 | 362 ft | 10 kts | 212° |
| 2026-05-05 17:27 | 49.01612 | 2.53633 | 357 ft | 6 kts | 258° |
| 2026-05-05 17:27 | 49.01616 | 2.53593 | 360 ft | 4 kts | 292° |
| 2026-05-05 17:27 | 49.01652 | 2.53526 | 358 ft | 12 kts | 308° |
| 2026-05-05 17:27 | 49.01678 | 2.53410 | 361 ft | 10 kts | 277° |
| 2026-05-05 17:28 | 49.01676 | 2.53329 | 361 ft | 5 kts | 264° |
| 2026-05-05 17:28 | 49.01671 | 2.53252 | 362 ft | 11 kts | 264° |
| 2026-05-05 17:28 | 49.01663 | 2.53098 | 356 ft | 14 kts | 265° |
| 2026-05-05 17:28 | 49.01658 | 2.52970 | 360 ft | 10 kts | 268° |
| 2026-05-05 17:29 | 49.01672 | 2.52871 | 356 ft | 12 kts | 292° |
| 2026-05-05 17:29 | 49.01719 | 2.52791 | 359 ft | 8 kts | 327° |
| 2026-05-05 17:29 | 49.01777 | 2.52759 | 359 ft | 9 kts | 351° |
| 2026-05-05 17:29 | 49.01831 | 2.52752 | 355 ft | 7 kts | 355° |
| 2026-05-05 17:30 | 49.01906 | 2.52743 | 355 ft | 15 kts | 355° |
| 2026-05-05 17:30 | 49.02039 | 2.52729 | 355 ft | 20 kts | 356° |
| 2026-05-05 17:30 | 49.02136 | 2.52784 | 362 ft | 13 kts | 62° |
| 2026-05-05 17:30 | 49.02145 | 2.52838 | 356 ft | 0 kts | 84° |
| 2026-05-05 17:31 | 49.02149 | 2.52890 | 363 ft | 25 kts | 84° |
| 2026-05-05 17:31 | 49.02184 | 2.53554 | 354 ft | 97 kts | 86° |
| 2026-05-05 17:31 | 49.02255 | 2.54858 | 365 ft | 148 kts | 84° |
| 2026-05-05 17:31 | 49.02331 | 2.56435 | 945 ft | 146 kts | 83° |
| 2026-05-05 17:32 | 49.02410 | 2.57975 | 1624 ft | 146 kts | 80° |
| 2026-05-05 17:32 | 49.02497 | 2.59589 | 2007 ft | 162 kts | 80° |
| 2026-05-05 17:32 | 49.02600 | 2.61409 | 2247 ft | 183 kts | 81° |
| 2026-05-05 17:32 | 49.02715 | 2.63450 | 2404 ft | 204 kts | 82° |
| 2026-05-05 17:33 | 49.02839 | 2.65742 | 2586 ft | 230 kts | 84° |
| 2026-05-05 17:33 | 49.02975 | 2.68301 | 3092 ft | 250 kts | 83° |
| 2026-05-05 17:33 | 49.03117 | 2.70977 | 3949 ft | 256 kts | 84° |
| 2026-05-05 17:33 | 49.03256 | 2.73710 | 4838 ft | 262 kts | 85° |
| 2026-05-05 17:34 | 49.03390 | 2.76509 | 5720 ft | 266 kts | 86° |
| 2026-05-05 17:34 | 49.03524 | 2.79340 | 6627 ft | 270 kts | 86° |
| 2026-05-05 17:34 | 49.03659 | 2.82222 | 7476 ft | 274 kts | 86° |
| 2026-05-05 17:34 | 49.03788 | 2.85145 | 8323 ft | 279 kts | 89° |
| 2026-05-05 17:35 | 49.03491 | 2.88055 | 9138 ft | 281 kts | 110° |
| 2026-05-05 17:35 | 49.02855 | 2.90885 | 9997 ft | 285 kts | 107° |
| 2026-05-05 17:35 | 49.02584 | 2.94010 | 10297 ft | 310 kts | 96° |
| 2026-05-05 17:35 | 49.02370 | 2.97354 | 10531 ft | 333 kts | 97° |
| 2026-05-05 17:36 | 49.02131 | 3.00948 | 10963 ft | 347 kts | 97° |
| 2026-05-05 17:36 | 49.01887 | 3.04647 | 11596 ft | 354 kts | 97° |
| 2026-05-05 17:36 | 49.01635 | 3.08416 | 12271 ft | 361 kts | 98° |
| 2026-05-05 17:36 | 49.01388 | 3.12248 | 12943 ft | 367 kts | 97° |
| 2026-05-05 17:37 | 49.01143 | 3.16149 | 13662 ft | 372 kts | 97° |
| 2026-05-05 17:37 | 49.00899 | 3.20092 | 14321 ft | 376 kts | 97° |
| 2026-05-05 17:37 | 49.00653 | 3.24072 | 15029 ft | 379 kts | 97° |
| 2026-05-05 17:37 | 49.00333 | 3.28061 | 15729 ft | 379 kts | 105° |
| 2026-05-05 17:38 | 48.99391 | 3.31788 | 16400 ft | 378 kts | 121° |
| 2026-05-05 17:38 | 48.98123 | 3.35305 | 17105 ft | 380 kts | 121° |
| 2026-05-05 17:38 | 48.96834 | 3.38830 | 17793 ft | 382 kts | 121° |
| 2026-05-05 17:38 | 48.95542 | 3.42342 | 18416 ft | 385 kts | 121° |
| 2026-05-05 17:39 | 48.94219 | 3.45932 | 19017 ft | 387 kts | 121° |
| 2026-05-05 17:39 | 48.92917 | 3.49468 | 19594 ft | 389 kts | 121° |
| 2026-05-05 17:39 | 48.91592 | 3.53071 | 20157 ft | 392 kts | 121° |
| 2026-05-05 17:39 | 48.90259 | 3.56700 | 20727 ft | 394 kts | 121° |
| 2026-05-05 17:40 | 48.88920 | 3.60343 | 21308 ft | 396 kts | 120° |
| 2026-05-05 17:40 | 48.87572 | 3.64008 | 21891 ft | 398 kts | 120° |
| 2026-05-05 17:40 | 48.86214 | 3.67690 | 22458 ft | 400 kts | 120° |
| 2026-05-05 17:40 | 48.84849 | 3.71386 | 23023 ft | 403 kts | 120° |
| 2026-05-05 17:41 | 48.83471 | 3.75109 | 23556 ft | 405 kts | 120° |
| 2026-05-05 17:41 | 48.82082 | 3.78853 | 24036 ft | 407 kts | 120° |
| 2026-05-05 17:41 | 48.80638 | 3.82554 | 24480 ft | 409 kts | 125° |
| 2026-05-05 17:41 | 48.78838 | 3.85910 | 24921 ft | 411 kts | 134° |
| 2026-05-05 17:42 | 48.76679 | 3.88758 | 25373 ft | 413 kts | 144° |
| 2026-05-05 17:42 | 48.74223 | 3.91045 | 25852 ft | 416 kts | 150° |
| 2026-05-05 17:42 | 48.71712 | 3.93128 | 26293 ft | 418 kts | 150° |
| 2026-05-05 17:42 | 48.69156 | 3.95247 | 26686 ft | 420 kts | 150° |
| 2026-05-05 17:43 | 48.66598 | 3.97371 | 26793 ft | 417 kts | 150° |
| 2026-05-05 17:43 | 48.64073 | 3.99468 | 26809 ft | 412 kts | 150° |
| 2026-05-05 17:43 | 48.61567 | 4.01548 | 26806 ft | 410 kts | 150° |
| 2026-05-05 17:43 | 48.59070 | 4.03620 | 26807 ft | 410 kts | 150° |
| 2026-05-05 17:44 | 48.56571 | 4.05691 | 26813 ft | 409 kts | 150° |
| 2026-05-05 17:44 | 48.54075 | 4.07757 | 26807 ft | 408 kts | 150° |
| 2026-05-05 17:44 | 48.51585 | 4.09813 | 26807 ft | 408 kts | 150° |
| 2026-05-05 17:44 | 48.49092 | 4.11868 | 26809 ft | 408 kts | 150° |
| 2026-05-05 17:45 | 48.46599 | 4.13921 | 26809 ft | 408 kts | 150° |
| 2026-05-05 17:45 | 48.44107 | 4.15972 | 26808 ft | 408 kts | 150° |
| 2026-05-05 17:45 | 48.41612 | 4.18025 | 26807 ft | 408 kts | 150° |
| 2026-05-05 17:45 | 48.38550 | 4.20534 | 26806 ft | 408 kts | 150° |
| 2026-05-05 17:46 | 48.33559 | 4.24601 | 26811 ft | 408 kts | 151° |
| 2026-05-05 17:46 | 48.28566 | 4.28628 | 26792 ft | 408 kts | 151° |
| 2026-05-05 17:46 | 48.23559 | 4.32624 | 26789 ft | 407 kts | 152° |
| 2026-05-05 17:46 | 48.18556 | 4.36605 | 26799 ft | 407 kts | 152° |
| 2026-05-05 17:47 | 48.13603 | 4.40526 | 26812 ft | 408 kts | 152° |
| 2026-05-05 17:47 | 48.08605 | 4.44546 | 26818 ft | 407 kts | 152° |
| 2026-05-05 17:47 | 48.03637 | 4.48616 | 26822 ft | 407 kts | 151° |
| 2026-05-05 17:47 | 47.98669 | 4.52664 | 26820 ft | 406 kts | 152° |
| 2026-05-05 17:48 | 47.93693 | 4.56691 | 26823 ft | 406 kts | 152° |
| 2026-05-05 17:48 | 47.88731 | 4.60691 | 26834 ft | 406 kts | 152° |
| 2026-05-05 17:48 | 47.83763 | 4.64687 | 26826 ft | 405 kts | 152° |
| 2026-05-05 17:48 | 47.78809 | 4.68671 | 26834 ft | 404 kts | 152° |
| 2026-05-05 17:49 | 47.73854 | 4.72651 | 26834 ft | 404 kts | 152° |
| 2026-05-05 17:49 | 47.68912 | 4.76613 | 26837 ft | 403 kts | 153° |
| 2026-05-05 17:49 | 47.63971 | 4.80555 | 26835 ft | 403 kts | 153° |
| 2026-05-05 17:49 | 47.59022 | 4.84486 | 26835 ft | 403 kts | 153° |
| 2026-05-05 17:50 | 47.54081 | 4.88405 | 26844 ft | 403 kts | 153° |
| 2026-05-05 17:50 | 47.49133 | 4.92332 | 26842 ft | 403 kts | 153° |
| 2026-05-05 17:50 | 47.44190 | 4.96250 | 26848 ft | 403 kts | 153° |
| 2026-05-05 17:50 | 47.39236 | 5.00165 | 26834 ft | 403 kts | 154° |
| 2026-05-05 17:51 | 47.34281 | 5.04069 | 26850 ft | 403 kts | 154° |
| 2026-05-05 17:51 | 47.29398 | 5.07904 | 26859 ft | 402 kts | 154° |
| 2026-05-05 17:51 | 47.26732 | 5.10100 | 26865 ft | 403 kts | 149° |
| 2026-05-05 17:51 | 47.24434 | 5.12474 | 26864 ft | 404 kts | 147° |
| 2026-05-05 17:52 | 47.22145 | 5.14865 | 26863 ft | 404 kts | 147° |
| 2026-05-05 17:52 | 47.19858 | 5.17246 | 26862 ft | 404 kts | 147° |
| 2026-05-05 17:52 | 47.17563 | 5.19627 | 26860 ft | 403 kts | 147° |
| 2026-05-05 17:52 | 47.15260 | 5.22007 | 26859 ft | 403 kts | 148° |
| 2026-05-05 17:53 | 47.12965 | 5.24376 | 26857 ft | 403 kts | 147° |
| 2026-05-05 17:53 | 47.10672 | 5.26746 | 26856 ft | 403 kts | 147° |
| 2026-05-05 17:53 | 47.08379 | 5.29114 | 26856 ft | 403 kts | 147° |
| 2026-05-05 17:53 | 47.06082 | 5.31483 | 26856 ft | 403 kts | 148° |
| 2026-05-05 17:54 | 47.03781 | 5.33852 | 26735 ft | 405 kts | 148° |
| 2026-05-05 17:54 | 47.01480 | 5.36220 | 26450 ft | 405 kts | 148° |
| 2026-05-05 17:54 | 46.99176 | 5.38589 | 26193 ft | 405 kts | 148° |
| 2026-05-05 17:54 | 46.96871 | 5.40956 | 25936 ft | 404 kts | 148° |
| 2026-05-05 17:55 | 46.94573 | 5.43316 | 25669 ft | 403 kts | 148° |
| 2026-05-05 17:55 | 46.92287 | 5.45667 | 25444 ft | 402 kts | 148° |
| 2026-05-05 17:55 | 46.89997 | 5.48018 | 25192 ft | 401 kts | 148° |
| 2026-05-05 17:55 | 46.87720 | 5.50350 | 24922 ft | 398 kts | 148° |
| 2026-05-05 17:56 | 46.85459 | 5.52660 | 24357 ft | 395 kts | 148° |
| 2026-05-05 17:56 | 46.83214 | 5.54948 | 23775 ft | 392 kts | 149° |
| 2026-05-05 17:56 | 46.80980 | 5.57221 | 23142 ft | 390 kts | 149° |
| 2026-05-05 17:56 | 46.78761 | 5.59477 | 22469 ft | 387 kts | 148° |
| 2026-05-05 17:57 | 46.76558 | 5.61717 | 21832 ft | 385 kts | 148° |
| 2026-05-05 17:57 | 46.74370 | 5.63938 | 21221 ft | 382 kts | 148° |
| 2026-05-05 17:57 | 46.72197 | 5.66142 | 20606 ft | 379 kts | 148° |
| 2026-05-05 17:57 | 46.70037 | 5.68333 | 20012 ft | 377 kts | 148° |
| 2026-05-05 17:58 | 46.67895 | 5.70506 | 19430 ft | 375 kts | 148° |
| 2026-05-05 17:58 | 46.65789 | 5.72639 | 18884 ft | 372 kts | 148° |
| 2026-05-05 17:58 | 46.63672 | 5.74784 | 18350 ft | 370 kts | 148° |
| 2026-05-05 17:58 | 46.61561 | 5.76922 | 17771 ft | 368 kts | 148° |
| 2026-05-05 17:59 | 46.59469 | 5.79038 | 17198 ft | 365 kts | 148° |
| 2026-05-05 17:59 | 46.57389 | 5.81136 | 16650 ft | 362 kts | 148° |
| 2026-05-05 17:59 | 46.55322 | 5.83220 | 16130 ft | 360 kts | 148° |
| 2026-05-05 17:59 | 46.53268 | 5.85287 | 15615 ft | 357 kts | 148° |
| 2026-05-05 18:00 | 46.51233 | 5.87333 | 15108 ft | 355 kts | 148° |
| 2026-05-05 18:00 | 46.49209 | 5.89366 | 14616 ft | 352 kts | 148° |
| 2026-05-05 18:00 | 46.47202 | 5.91383 | 14127 ft | 350 kts | 148° |
| 2026-05-05 18:00 | 46.45891 | 5.92700 | 13678 ft | 343 kts | 149° |
| 2026-05-05 18:01 | 46.43955 | 5.94645 | 13100 ft | 330 kts | 149° |
| 2026-05-05 18:01 | 46.41547 | 5.97065 | 12373 ft | 306 kts | 149° |
| 2026-05-05 18:01 | 46.40425 | 5.98326 | 11989 ft | 300 kts | 138° |
| 2026-05-05 18:01 | 46.39099 | 6.01795 | 11299 ft | 304 kts | 104° |
| 2026-05-05 18:02 | 46.39107 | 6.04875 | 10806 ft | 313 kts | 79° |
| 2026-05-05 18:02 | 46.39597 | 6.06872 | 10374 ft | 310 kts | 67° |
| 2026-05-05 18:02 | 46.40567 | 6.09612 | 9580 ft | 309 kts | 63° |
| 2026-05-05 18:02 | 46.41588 | 6.12340 | 8758 ft | 307 kts | 64° |
| 2026-05-05 18:03 | 46.42612 | 6.15042 | 8037 ft | 302 kts | 63° |
| 2026-05-05 18:03 | 46.43606 | 6.17670 | 7441 ft | 293 kts | 63° |
| 2026-05-05 18:03 | 46.44569 | 6.20207 | 7030 ft | 277 kts | 63° |
| 2026-05-05 18:03 | 46.45476 | 6.22613 | 7076 ft | 271 kts | 65° |
| 2026-05-05 18:04 | 46.45976 | 6.25165 | 6857 ft | 258 kts | 92° |
| 2026-05-05 18:04 | 46.45652 | 6.27632 | 6241 ft | 245 kts | 119° |
| 2026-05-05 18:04 | 46.44941 | 6.29852 | 5982 ft | 240 kts | 122° |
| 2026-05-05 18:04 | 46.44193 | 6.31988 | 5507 ft | 234 kts | 125° |
| 2026-05-05 18:05 | 46.43121 | 6.33618 | 5046 ft | 218 kts | 156° |
| 2026-05-05 18:05 | 46.41711 | 6.34065 | 4599 ft | 204 kts | 186° |
| 2026-05-05 18:05 | 46.40313 | 6.33794 | 4136 ft | 202 kts | 192° |
| 2026-05-05 18:05 | 46.39024 | 6.33109 | 4038 ft | 198 kts | 212° |
| 2026-05-05 18:06 | 46.37988 | 6.31822 | 4027 ft | 198 kts | 226° |
| 2026-05-05 18:06 | 46.37351 | 6.30874 | 4025 ft | 198 kts | 226° |
| 2026-05-05 18:06 | 46.36106 | 6.29028 | 4009 ft | 183 kts | 226° |
| 2026-05-05 18:06 | 46.35245 | 6.27754 | 4022 ft | 177 kts | 225° |
| 2026-05-05 18:07 | 46.34388 | 6.26488 | 3946 ft | 175 kts | 225° |
| 2026-05-05 18:07 | 46.33548 | 6.25247 | 3768 ft | 165 kts | 225° |
| 2026-05-05 18:07 | 46.32802 | 6.24144 | 3568 ft | 145 kts | 225° |
| 2026-05-05 18:07 | 46.32119 | 6.23137 | 3389 ft | 138 kts | 225° |
| 2026-05-05 18:08 | 46.31449 | 6.22148 | 3213 ft | 136 kts | 224° |
| 2026-05-05 18:08 | 46.30793 | 6.21181 | 3032 ft | 134 kts | 224° |
| 2026-05-05 18:08 | 46.30141 | 6.20220 | 2843 ft | 134 kts | 225° |
| 2026-05-05 18:08 | 46.29492 | 6.19264 | 2649 ft | 133 kts | 224° |
| 2026-05-05 18:09 | 46.28838 | 6.18301 | 2466 ft | 135 kts | 226° |
| 2026-05-05 18:09 | 46.28175 | 6.17324 | 2276 ft | 136 kts | 225° |
| 2026-05-05 18:09 | 46.27511 | 6.16347 | 2086 ft | 137 kts | 225° |
| 2026-05-05 18:09 | 46.26850 | 6.15344 | 1906 ft | 138 kts | 224° |
| 2026-05-05 18:10 | 46.26162 | 6.14367 | 1720 ft | 139 kts | 224° |
| 2026-05-05 18:10 | 46.25488 | 6.13366 | 1535 ft | 139 kts | 223° |
| 2026-05-05 18:10 | 46.24806 | 6.12360 | 1383 ft | 139 kts | 223° |
| 2026-05-05 18:10 | 46.24239 | 6.11534 | 1374 ft | 88 kts | 226° |
| 2026-05-05 18:11 | 46.23932 | 6.11082 | 1377 ft | 44 kts | 226° |
| 2026-05-05 18:11 | 46.23733 | 6.10814 | 1380 ft | 26 kts | 214° |
| 2026-05-05 18:11 | 46.23610 | 6.10733 | 1382 ft | 14 kts | 195° |
| 2026-05-05 18:11 | 46.23531 | 6.10701 | 1386 ft | 0 kts | 195° |
| 2026-05-05 18:12 | 46.23504 | 6.10691 | 1386 ft | 3 kts | 195° |
| 2026-05-05 18:12 | 46.23495 | 6.10687 | 1385 ft | 2 kts | 195° |
| 2026-05-05 18:12 | 46.23440 | 6.10664 | 1386 ft | 12 kts | 197° |
| 2026-05-05 18:13 | 46.23377 | 6.10608 | 1395 ft | 10 kts | 224° |
| 2026-05-05 18:13 | 46.23329 | 6.10539 | 1398 ft | 9 kts | 225° |
| 2026-05-05 18:13 | 46.23280 | 6.10524 | 1401 ft | 7 kts | 148° |
| 2026-05-05 18:13 | 46.23246 | 6.10575 | 1395 ft | 7 kts | 134° |
| 2026-05-05 18:14 | 46.23212 | 6.10623 | 1404 ft | 7 kts | 135° |
| 2026-05-05 18:14 | 46.23174 | 6.10656 | 1397 ft | 6 kts | 178° |
| 2026-05-05 18:14 | 46.23143 | 6.10625 | 1399 ft | 5 kts | 224° |
| 2026-05-05 18:14 | 46.23120 | 6.10590 | 1402 ft | 4 kts | 225° |
| 2026-05-05 18:15 | 46.23100 | 6.10564 | 1401 ft | 2 kts | 214° |
| 2026-05-05 18:15 | 46.23089 | 6.10566 | 1402 ft | 1 kts | 161° |
| 2026-05-05 18:15 | 46.23081 | 6.10576 | 1393 ft | 2 kts | 135° |
| 2026-05-05 18:15 | 46.23078 | 6.10581 | 1393 ft | 2 kts | 135° |
| 2026-05-05 18:16 | 46.23058 | 6.10609 | 1401 ft | 4 kts | 136° |
| 2026-05-05 18:16 | 46.23057 | 6.10610 | 1402 ft | 1 kts | 136° |
| 2026-05-05 18:16 | 46.23055 | 6.10613 | 1402 ft | 0 kts | 136° |
| 2026-05-05 18:23 | 46.23055 | 6.10612 | 1393 ft | 0 kts | 136° |